地図

経路データ

SID SEASON NUMBER BASIN SUBBASIN NAME ISO_TIME NATURE LAT LON WMO_WIND WMO_PRES WMO_AGENCY TRACK_TYPE DIST2LAND LANDFALL IFLAG USA_AGENCY USA_ATCF_ID USA_LAT USA_LON USA_RECORD USA_STATUS USA_WIND USA_PRES USA_SSHS USA_R34_NE USA_R34_SE USA_R34_SW USA_R34_NW USA_R50_NE USA_R50_SE USA_R50_SW USA_R50_NW USA_R64_NE USA_R64_SE USA_R64_SW USA_R64_NW USA_POCI USA_ROCI USA_RMW USA_EYE TOKYO_LAT TOKYO_LON TOKYO_GRADE TOKYO_WIND TOKYO_PRES TOKYO_R50_DIR TOKYO_R50_LONG TOKYO_R50_SHORT TOKYO_R30_DIR TOKYO_R30_LONG TOKYO_R30_SHORT TOKYO_LAND CMA_LAT CMA_LON CMA_CAT CMA_WIND CMA_PRES HKO_LAT HKO_LON HKO_CAT HKO_WIND HKO_PRES NEWDELHI_LAT NEWDELHI_LON NEWDELHI_GRADE NEWDELHI_WIND NEWDELHI_PRES NEWDELHI_CI NEWDELHI_DP NEWDELHI_POCI REUNION_LAT REUNION_LON REUNION_TYPE REUNION_WIND REUNION_PRES REUNION_TNUM REUNION_CI REUNION_RMW REUNION_R34_NE REUNION_R34_SE REUNION_R34_SW REUNION_R34_NW REUNION_R50_NE REUNION_R50_SE REUNION_R50_SW REUNION_R50_NW REUNION_R64_NE REUNION_R64_SE REUNION_R64_SW REUNION_R64_NW BOM_LAT BOM_LON BOM_TYPE BOM_WIND BOM_PRES BOM_TNUM BOM_CI BOM_RMW BOM_R34_NE BOM_R34_SE BOM_R34_SW BOM_R34_NW BOM_R50_NE BOM_R50_SE BOM_R50_SW BOM_R50_NW BOM_R64_NE BOM_R64_SE BOM_R64_SW BOM_R64_NW BOM_ROCI BOM_POCI BOM_EYE BOM_POS_METHOD BOM_PRES_METHOD NADI_LAT NADI_LON NADI_CAT NADI_WIND NADI_PRES WELLINGTON_LAT WELLINGTON_LON WELLINGTON_WIND WELLINGTON_PRES DS824_LAT DS824_LON DS824_STAGE DS824_WIND DS824_PRES TD9636_LAT TD9636_LON TD9636_STAGE TD9636_WIND TD9636_PRES TD9635_LAT TD9635_LON TD9635_WIND TD9635_PRES TD9635_ROCI NEUMANN_LAT NEUMANN_LON NEUMANN_CLASS NEUMANN_WIND NEUMANN_PRES MLC_LAT MLC_LON MLC_CLASS MLC_WIND MLC_PRES USA_GUST BOM_GUST BOM_GUST_PER REUNION_GUST REUNION_GUST_PER USA_SEAHGT USA_SEARAD_NE USA_SEARAD_SE USA_SEARAD_SW USA_SEARAD_NW STORM_SPEED STORM_DIR
1986028N04158 1986 15 WP MM NOT_NAMED 1986-01-27 18:00:00 NR 4.40000 158.400 spur-merge 1118 1032 __________O___ -1 4.40000 158.400 1 15 28 268
1986028N04158 1986 15 WP MM NOT_NAMED 1986-01-27 21:00:00 NR 4.35524 157.001 spur-merge 1026 953 __________P___ -1 4.35524 157.001 1 17 25 268
1986028N04158 1986 15 WP MM NOT_NAMED 1986-01-28 00:00:00 NR 4.30000 155.900 spur-merge 953 910 __________O___ -1 4.30000 155.900 1 20 17 266
1986028N04158 1986 15 WP MM NOT_NAMED 1986-01-28 03:00:00 NR 4.23041 155.316 spur-merge 910 900 __________P___ -1 4.23041 155.316 1 21 8 259
1986028N04158 1986 15 WP MM NOT_NAMED 1986-01-28 06:00:00 NR 4.15231 155.144 spur-merge 900 890 __________P___ -1 4.15231 155.144 1 22 2 217
1986028N04158 1986 15 WP MM NOT_NAMED 1986-01-28 09:00:00 NR 4.07312 155.200 spur-merge 895 885 __________P___ -1 4.07312 155.200 1 23 2 134
1986028N04158 1986 15 WP MM NOT_NAMED 1986-01-28 12:00:00 NR 4.00000 155.300 spur-merge 891 875 __________O___ -1 4.00000 155.300 1 25 1 166
1986028N04158 1986 15 WP MM NOT_NAMED 1986-01-28 15:00:00 NR 3.93452 155.241 spur-merge 875 875 __________P___ -1 3.93452 155.241 1 25 2 226
1986028N04158 1986 15 WP MM NOT_NAMED 1986-01-28 18:00:00 NR 3.87721 155.177 spur-merge 875 860 __________P___ -1 3.87721 155.177 1 25 2 242
1986028N04158 1986 15 WP MM NOT_NAMED 1986-01-28 21:00:00 NR 3.83131 155.050 spur-merge 860 845 __________P___ -1 3.83131 155.050 1 25 4 258
1986028N04158 1986 15 WP MM NOT_NAMED 1986-01-29 00:00:00 NR 3.80000 154.800 spur-merge 845 820 __________O___ -1 3.80000 154.800 1 25 7 271
1986028N04158 1986 15 WP MM NOT_NAMED 1986-01-29 03:00:00 NR 3.84282 154.318 spur-merge 820 806 __________P___ -1 3.84282 154.318 1 25 11 275
1986028N04158 1986 15 WP MM NOT_NAMED 1986-01-29 06:00:00 NR 3.89047 153.718 spur-merge 802 779 __________P___ -1 3.89047 153.718 1 25 12 272
1986028N04158 1986 15 WP MM NOT_NAMED 1986-01-29 09:00:00 NR 3.89283 153.084 spur-merge 779 749 __________P___ -1 3.89283 153.084 1 25 12 266
1986028N04158 1986 15 WP MM NOT_NAMED 1986-01-29 12:00:00 NR 3.80000 152.500 spur-merge 749 707 __________O___ -1 3.80000 152.500 1 25 11 249
1986028N04158 1986 15 WP MM NOT_NAMED 1986-01-29 15:00:00 NR 3.50983 152.081 spur-merge 707 667 __________P___ -1 3.50983 152.081 1 25 10 229
1986028N04158 1986 15 WP MM NOT_NAMED 1986-01-29 18:00:00 NR 3.12980 151.725 spur-merge 656 618 __________P___ -1 3.12980 151.725 1 25 10 221
1986028N04158 1986 15 WP MM NOT_NAMED 1986-01-29 21:00:00 NR 2.73488 151.406 spur-merge 607 571 __________P___ -1 2.73488 151.406 1 25 10 221
1986028N04158 1986 15 WP MM NOT_NAMED 1986-01-30 00:00:00 NR 2.40000 151.100 spur-merge 571 549 __________O___ -1 2.40000 151.100 1 25 8 229
1986028N04158 1986 15 WP MM NOT_NAMED 1986-01-30 03:00:00 NR 2.20370 150.788 spur-merge 549 538 __________P___ -1 2.20370 150.788 1 25 7 243
1986028N04158 1986 15 WP MM NOT_NAMED 1986-01-30 06:00:00 NR 2.07993 150.480 spur-merge 539 529 __________P___ -1 2.07993 150.480 1 25 7 253
1986028N04158 1986 15 WP MM NOT_NAMED 1986-01-30 09:00:00 NR 2.01619 150.157 spur-merge 532 531 __________P___ -1 2.01619 150.157 1 25 7 263
1986028N04158 1986 15 WP MM NOT_NAMED 1986-01-30 12:00:00 NR 2.00000 149.800 spur-merge 531 510 __________O___ -1 2.00000 149.800 1 25 8 268
1986028N04158 1986 15 WP MM NOT_NAMED 1986-01-30 15:00:00 NR 1.98252 149.378 spur-merge 510 488 __________P___ -1 2.01946 149.396 1 25 9 271
1986028N04158 1986 15 WP MM NOT_NAMED 1986-01-30 18:00:00 NR 2.01003 148.922 spur-merge 488 478 __________P___ -1 2.06515 148.953 1 25 9 276
1986028N04158 1986 15 WP MM NOT_NAMED 1986-01-30 21:00:00 NR 2.08252 148.456 spur-merge 486 479 __________P___ -1 2.12827 148.483 1 25 9 282
1986028N04158 1986 15 WP MM NOT_NAMED 1986-01-31 00:00:00 NR 2.20000 148.000 spur-merge 486 485 __________O___ -1 2.20000 148.000 1 25 9 286
1986028N04158 1986 15 WP MM NOT_NAMED 1986-01-31 03:00:00 NR 2.32422 147.634 spur-merge 493 493 ______________ -1 1 8 292
1986028N04158 1986 15 WP MM NOT_NAMED 1986-01-31 06:00:00 NR 2.49475 147.274 spur-merge 515 515 ______________ -1 1 9 298
1986028N04158 1986 15 WP MM NOT_NAMED 1986-01-31 09:00:00 NR 2.71790 146.878 spur-merge 537 ______________ -1 1 9 299

デジタル台風データ・検索

IBTrACS Databaseについて

本データベースは、米国NOAAが公開する1842年以降の世界の熱帯低気圧のベストトラックデータアーカイブInternational Best Track Archive for Climate Stewardship (IBTrACS)を、ウェブで閲覧しやすい形式に変換したものです。

最終更新日:2021-10-08